sensor_id;sensor_type;location;lat;lon;timestamp;temperature;humidity
21335;DHT22;69435;52.670;13.544;2023-12-14T00:02:26;6.50;69.40
21335;DHT22;69435;52.670;13.544;2023-12-14T00:05:12;6.50;69.40
21335;DHT22;69435;52.670;13.544;2023-12-14T00:07:58;6.40;69.20
21335;DHT22;69435;52.670;13.544;2023-12-14T00:10:44;6.40;69.30
21335;DHT22;69435;52.670;13.544;2023-12-14T00:13:30;6.40;69.50
21335;DHT22;69435;52.670;13.544;2023-12-14T00:16:19;6.40;69.50
21335;DHT22;69435;52.670;13.544;2023-12-14T00:19:06;6.30;69.60
21335;DHT22;69435;52.670;13.544;2023-12-14T00:21:52;6.30;69.50
21335;DHT22;69435;52.670;13.544;2023-12-14T00:24:38;6.30;69.30
21335;DHT22;69435;52.670;13.544;2023-12-14T00:27:24;6.30;69.40
21335;DHT22;69435;52.670;13.544;2023-12-14T00:30:10;6.20;69.40
21335;DHT22;69435;52.670;13.544;2023-12-14T00:32:57;6.20;69.30
21335;DHT22;69435;52.670;13.544;2023-12-14T00:35:43;6.20;69.30
21335;DHT22;69435;52.670;13.544;2023-12-14T00:38:29;6.20;69.20
21335;DHT22;69435;52.670;13.544;2023-12-14T00:41:15;6.20;69.30
21335;DHT22;69435;52.670;13.544;2023-12-14T00:44:01;6.20;69.30
21335;DHT22;69435;52.670;13.544;2023-12-14T00:46:47;6.10;69.40
21335;DHT22;69435;52.670;13.544;2023-12-14T00:49:33;6.20;69.30
21335;DHT22;69435;52.670;13.544;2023-12-14T00:52:19;6.20;69.30
21335;DHT22;69435;52.670;13.544;2023-12-14T00:55:05;6.10;69.20
21335;DHT22;69435;52.670;13.544;2023-12-14T00:57:51;6.10;69.20
21335;DHT22;69435;52.670;13.544;2023-12-14T01:00:37;6.10;69.20
21335;DHT22;69435;52.670;13.544;2023-12-14T01:03:24;6.10;70.00
21335;DHT22;69435;52.670;13.544;2023-12-14T01:06:10;6.10;69.20
21335;DHT22;69435;52.670;13.544;2023-12-14T01:08:56;6.10;69.00
21335;DHT22;69435;52.670;13.544;2023-12-14T01:11:42;6.00;69.00
21335;DHT22;69435;52.670;13.544;2023-12-14T01:14:28;6.00;69.10
21335;DHT22;69435;52.670;13.544;2023-12-14T01:17:14;6.00;69.10
21335;DHT22;69435;52.670;13.544;2023-12-14T01:20:00;6.00;69.10
21335;DHT22;69435;52.670;13.544;2023-12-14T01:22:52;6.00;69.10
21335;DHT22;69435;52.670;13.544;2023-12-14T01:25:38;6.00;69.00
21335;DHT22;69435;52.670;13.544;2023-12-14T01:28:24;6.00;69.10
21335;DHT22;69435;52.670;13.544;2023-12-14T01:31:10;6.00;69.00
21335;DHT22;69435;52.670;13.544;2023-12-14T01:33:56;6.00;69.00
21335;DHT22;69435;52.670;13.544;2023-12-14T01:36:42;6.00;69.00
21335;DHT22;69435;52.670;13.544;2023-12-14T01:39:28;6.00;69.10
21335;DHT22;69435;52.670;13.544;2023-12-14T01:42:14;6.00;69.00
21335;DHT22;69435;52.670;13.544;2023-12-14T01:45:00;5.90;69.00
21335;DHT22;69435;52.670;13.544;2023-12-14T01:47:46;5.90;69.00
21335;DHT22;69435;52.670;13.544;2023-12-14T01:50:32;5.90;69.00
21335;DHT22;69435;52.670;13.544;2023-12-14T01:53:18;5.90;69.00
21335;DHT22;69435;52.670;13.544;2023-12-14T01:56:05;5.90;69.20
21335;DHT22;69435;52.670;13.544;2023-12-14T01:58:51;5.90;69.20
21335;DHT22;69435;52.670;13.544;2023-12-14T02:01:45;5.90;69.10
21335;DHT22;69435;52.670;13.544;2023-12-14T02:04:33;5.90;69.10
21335;DHT22;69435;52.670;13.544;2023-12-14T02:07:19;5.90;69.10
21335;DHT22;69435;52.670;13.544;2023-12-14T02:10:05;5.90;69.10
21335;DHT22;69435;52.670;13.544;2023-12-14T02:12:52;5.90;69.00
21335;DHT22;69435;52.670;13.544;2023-12-14T02:15:38;5.90;69.00
21335;DHT22;69435;52.670;13.544;2023-12-14T02:18:24;5.90;68.90
21335;DHT22;69435;52.670;13.544;2023-12-14T02:21:10;5.90;69.00
21335;DHT22;69435;52.670;13.544;2023-12-14T02:23:56;5.90;69.00
21335;DHT22;69435;52.670;13.544;2023-12-14T02:26:42;5.90;69.20
21335;DHT22;69435;52.670;13.544;2023-12-14T02:29:29;5.90;69.10
21335;DHT22;69435;52.670;13.544;2023-12-14T02:32:15;5.90;69.20
21335;DHT22;69435;52.670;13.544;2023-12-14T02:35:01;5.90;69.10
21335;DHT22;69435;52.670;13.544;2023-12-14T02:37:48;5.90;69.10
21335;DHT22;69435;52.670;13.544;2023-12-14T02:40:34;5.80;69.10
21335;DHT22;69435;52.670;13.544;2023-12-14T02:43:20;5.90;69.20
21335;DHT22;69435;52.670;13.544;2023-12-14T02:46:06;5.80;69.20
21335;DHT22;69435;52.670;13.544;2023-12-14T02:48:53;5.90;69.20
21335;DHT22;69435;52.670;13.544;2023-12-14T02:51:39;5.90;69.20
21335;DHT22;69435;52.670;13.544;2023-12-14T02:54:25;5.90;69.20
21335;DHT22;69435;52.670;13.544;2023-12-14T02:57:11;5.90;69.20
21335;DHT22;69435;52.670;13.544;2023-12-14T02:59:57;5.90;69.20
21335;DHT22;69435;52.670;13.544;2023-12-14T03:02:43;5.90;69.10
21335;DHT22;69435;52.670;13.544;2023-12-14T03:05:29;5.90;69.20
21335;DHT22;69435;52.670;13.544;2023-12-14T03:08:15;5.90;69.00
21335;DHT22;69435;52.670;13.544;2023-12-14T03:11:01;5.90;69.20
21335;DHT22;69435;52.670;13.544;2023-12-14T03:13:47;5.90;69.20
21335;DHT22;69435;52.670;13.544;2023-12-14T03:16:34;5.90;69.10
21335;DHT22;69435;52.670;13.544;2023-12-14T03:19:23;5.90;69.10
21335;DHT22;69435;52.670;13.544;2023-12-14T03:22:09;5.90;69.10
21335;DHT22;69435;52.670;13.544;2023-12-14T03:24:55;5.90;69.20
21335;DHT22;69435;52.670;13.544;2023-12-14T03:27:41;5.90;68.90
21335;DHT22;69435;52.670;13.544;2023-12-14T03:30:27;5.90;69.00
21335;DHT22;69435;52.670;13.544;2023-12-14T03:33:13;5.90;69.10
21335;DHT22;69435;52.670;13.544;2023-12-14T03:35:59;5.90;69.10
21335;DHT22;69435;52.670;13.544;2023-12-14T03:38:45;5.90;69.20
21335;DHT22;69435;52.670;13.544;2023-12-14T03:41:31;5.90;69.10
21335;DHT22;69435;52.670;13.544;2023-12-14T03:44:18;5.90;69.10
21335;DHT22;69435;52.670;13.544;2023-12-14T03:47:04;5.90;69.10
21335;DHT22;69435;52.670;13.544;2023-12-14T03:49:50;5.90;68.90
21335;DHT22;69435;52.670;13.544;2023-12-14T03:52:36;5.90;68.90
21335;DHT22;69435;52.670;13.544;2023-12-14T03:55:22;5.90;69.00
21335;DHT22;69435;52.670;13.544;2023-12-14T03:58:08;5.90;69.20
21335;DHT22;69435;52.670;13.544;2023-12-14T04:00:54;5.90;69.30
21335;DHT22;69435;52.670;13.544;2023-12-14T04:03:40;5.90;69.30
21335;DHT22;69435;52.670;13.544;2023-12-14T04:06:27;5.90;69.20
21335;DHT22;69435;52.670;13.544;2023-12-14T04:09:13;5.90;69.20
21335;DHT22;69435;52.670;13.544;2023-12-14T04:11:59;6.00;69.20
21335;DHT22;69435;52.670;13.544;2023-12-14T04:14:46;6.00;69.20
21335;DHT22;69435;52.670;13.544;2023-12-14T04:17:32;6.00;69.20
21335;DHT22;69435;52.670;13.544;2023-12-14T04:20:18;6.00;69.10
21335;DHT22;69435;52.670;13.544;2023-12-14T04:23:05;6.00;69.00
21335;DHT22;69435;52.670;13.544;2023-12-14T04:25:51;6.00;69.10
21335;DHT22;69435;52.670;13.544;2023-12-14T04:28:37;6.10;69.20
21335;DHT22;69435;52.670;13.544;2023-12-14T04:31:23;6.10;69.10
21335;DHT22;69435;52.670;13.544;2023-12-14T04:34:09;6.10;69.10
21335;DHT22;69435;52.670;13.544;2023-12-14T04:37:00;6.10;69.00
21335;DHT22;69435;52.670;13.544;2023-12-14T04:39:46;6.10;68.90
21335;DHT22;69435;52.670;13.544;2023-12-14T04:42:32;6.10;68.90
21335;DHT22;69435;52.670;13.544;2023-12-14T04:45:18;6.10;68.90
21335;DHT22;69435;52.670;13.544;2023-12-14T04:48:05;6.10;69.00
21335;DHT22;69435;52.670;13.544;2023-12-14T04:50:51;6.10;68.90
21335;DHT22;69435;52.670;13.544;2023-12-14T04:53:37;6.10;68.90
21335;DHT22;69435;52.670;13.544;2023-12-14T04:56:23;6.10;68.80
21335;DHT22;69435;52.670;13.544;2023-12-14T04:59:09;6.10;69.00
21335;DHT22;69435;52.670;13.544;2023-12-14T05:01:55;6.10;68.90
21335;DHT22;69435;52.670;13.544;2023-12-14T05:04:41;6.00;68.90
21335;DHT22;69435;52.670;13.544;2023-12-14T05:07:27;6.10;69.00
21335;DHT22;69435;52.670;13.544;2023-12-14T05:10:14;6.10;69.00
21335;DHT22;69435;52.670;13.544;2023-12-14T05:13:00;6.10;69.00
21335;DHT22;69435;52.670;13.544;2023-12-14T05:15:46;6.00;68.80
21335;DHT22;69435;52.670;13.544;2023-12-14T05:18:32;6.00;68.90
21335;DHT22;69435;52.670;13.544;2023-12-14T05:21:18;6.00;68.90
21335;DHT22;69435;52.670;13.544;2023-12-14T05:24:05;6.10;69.00
21335;DHT22;69435;52.670;13.544;2023-12-14T05:26:51;6.00;68.90
21335;DHT22;69435;52.670;13.544;2023-12-14T05:29:37;6.00;69.00
21335;DHT22;69435;52.670;13.544;2023-12-14T05:32:23;6.00;68.90
21335;DHT22;69435;52.670;13.544;2023-12-14T05:35:09;6.00;68.90
21335;DHT22;69435;52.670;13.544;2023-12-14T05:37:55;6.00;69.60
21335;DHT22;69435;52.670;13.544;2023-12-14T05:40:41;6.00;68.90
21335;DHT22;69435;52.670;13.544;2023-12-14T05:43:28;6.00;68.90
21335;DHT22;69435;52.670;13.544;2023-12-14T05:46:23;6.00;68.90
21335;DHT22;69435;52.670;13.544;2023-12-14T05:49:10;6.00;68.90
21335;DHT22;69435;52.670;13.544;2023-12-14T05:51:59;6.00;68.90
21335;DHT22;69435;52.670;13.544;2023-12-14T05:54:45;6.00;69.00
21335;DHT22;69435;52.670;13.544;2023-12-14T05:57:31;6.00;68.90
21335;DHT22;69435;52.670;13.544;2023-12-14T06:00:18;6.00;68.90
21335;DHT22;69435;52.670;13.544;2023-12-14T06:03:04;6.00;68.70
21335;DHT22;69435;52.670;13.544;2023-12-14T06:05:51;6.00;68.70
21335;DHT22;69435;52.670;13.544;2023-12-14T06:08:37;6.00;68.90
21335;DHT22;69435;52.670;13.544;2023-12-14T06:11:23;6.00;68.90
21335;DHT22;69435;52.670;13.544;2023-12-14T06:14:09;6.10;69.00
21335;DHT22;69435;52.670;13.544;2023-12-14T06:16:56;6.00;68.90
21335;DHT22;69435;52.670;13.544;2023-12-14T06:19:42;6.00;68.80
21335;DHT22;69435;52.670;13.544;2023-12-14T06:22:28;6.00;68.80
21335;DHT22;69435;52.670;13.544;2023-12-14T06:25:14;6.00;68.80
21335;DHT22;69435;52.670;13.544;2023-12-14T06:28:00;6.00;69.60
21335;DHT22;69435;52.670;13.544;2023-12-14T06:30:46;6.00;68.90
21335;DHT22;69435;52.670;13.544;2023-12-14T06:33:32;6.00;68.80
21335;DHT22;69435;52.670;13.544;2023-12-14T06:36:18;6.00;68.80
21335;DHT22;69435;52.670;13.544;2023-12-14T06:39:04;6.00;68.80
21335;DHT22;69435;52.670;13.544;2023-12-14T06:41:52;6.00;68.70
21335;DHT22;69435;52.670;13.544;2023-12-14T06:44:39;5.90;68.70
21335;DHT22;69435;52.670;13.544;2023-12-14T06:47:25;5.90;68.90
21335;DHT22;69435;52.670;13.544;2023-12-14T06:50:11;5.90;69.00
21335;DHT22;69435;52.670;13.544;2023-12-14T06:52:59;6.00;68.80
21335;DHT22;69435;52.670;13.544;2023-12-14T06:55:45;5.90;69.00
21335;DHT22;69435;52.670;13.544;2023-12-14T06:58:31;5.90;69.00
21335;DHT22;69435;52.670;13.544;2023-12-14T07:01:17;5.90;69.00
21335;DHT22;69435;52.670;13.544;2023-12-14T07:04:03;5.90;68.90
21335;DHT22;69435;52.670;13.544;2023-12-14T07:06:50;6.00;69.00
21335;DHT22;69435;52.670;13.544;2023-12-14T07:09:38;6.00;68.80
21335;DHT22;69435;52.670;13.544;2023-12-14T07:12:24;6.00;68.90
21335;DHT22;69435;52.670;13.544;2023-12-14T07:15:10;6.00;69.00
21335;DHT22;69435;52.670;13.544;2023-12-14T07:17:56;6.00;68.80
21335;DHT22;69435;52.670;13.544;2023-12-14T07:20:42;6.00;68.80
21335;DHT22;69435;52.670;13.544;2023-12-14T07:23:28;6.10;68.90
21335;DHT22;69435;52.670;13.544;2023-12-14T07:26:14;6.10;68.80
21335;DHT22;69435;52.670;13.544;2023-12-14T07:29:00;6.10;68.80
21335;DHT22;69435;52.670;13.544;2023-12-14T07:31:46;6.10;68.60
21335;DHT22;69435;52.670;13.544;2023-12-14T07:34:32;6.10;68.50
21335;DHT22;69435;52.670;13.544;2023-12-14T07:37:18;6.10;68.50
21335;DHT22;69435;52.670;13.544;2023-12-14T07:40:05;6.10;68.50
21335;DHT22;69435;52.670;13.544;2023-12-14T07:42:51;6.10;68.50
21335;DHT22;69435;52.670;13.544;2023-12-14T07:45:37;6.10;68.50
21335;DHT22;69435;52.670;13.544;2023-12-14T07:48:23;6.10;68.40
21335;DHT22;69435;52.670;13.544;2023-12-14T07:51:09;6.10;68.50
21335;DHT22;69435;52.670;13.544;2023-12-14T07:53:55;6.10;68.50
21335;DHT22;69435;52.670;13.544;2023-12-14T07:56:41;6.10;68.70
21335;DHT22;69435;52.670;13.544;2023-12-14T07:59:27;6.10;68.50
21335;DHT22;69435;52.670;13.544;2023-12-14T08:02:15;6.10;68.60
21335;DHT22;69435;52.670;13.544;2023-12-14T08:05:01;6.10;68.60
21335;DHT22;69435;52.670;13.544;2023-12-14T08:07:47;6.10;68.60
21335;DHT22;69435;52.670;13.544;2023-12-14T08:10:33;6.10;68.50
21335;DHT22;69435;52.670;13.544;2023-12-14T08:13:19;6.10;68.40
21335;DHT22;69435;52.670;13.544;2023-12-14T08:16:07;6.10;68.50
21335;DHT22;69435;52.670;13.544;2023-12-14T08:18:53;6.10;68.50
21335;DHT22;69435;52.670;13.544;2023-12-14T08:21:39;6.10;68.30
21335;DHT22;69435;52.670;13.544;2023-12-14T08:24:25;6.10;68.40
21335;DHT22;69435;52.670;13.544;2023-12-14T08:27:20;6.10;68.30
21335;DHT22;69435;52.670;13.544;2023-12-14T08:30:14;6.10;68.30
21335;DHT22;69435;52.670;13.544;2023-12-14T08:33:00;6.10;68.30
21335;DHT22;69435;52.670;13.544;2023-12-14T08:35:46;6.10;68.30
21335;DHT22;69435;52.670;13.544;2023-12-14T08:38:32;6.20;68.20
21335;DHT22;69435;52.670;13.544;2023-12-14T08:41:18;6.20;68.30
21335;DHT22;69435;52.670;13.544;2023-12-14T08:44:04;6.20;68.20
21335;DHT22;69435;52.670;13.544;2023-12-14T08:46:50;6.20;68.20
21335;DHT22;69435;52.670;13.544;2023-12-14T08:49:36;6.20;68.20
21335;DHT22;69435;52.670;13.544;2023-12-14T08:52:22;6.20;68.10
21335;DHT22;69435;52.670;13.544;2023-12-14T08:55:08;6.30;68.20
21335;DHT22;69435;52.670;13.544;2023-12-14T08:57:55;6.30;68.20
21335;DHT22;69435;52.670;13.544;2023-12-14T09:00:41;6.20;67.90
21335;DHT22;69435;52.670;13.544;2023-12-14T09:03:27;6.30;68.00
21335;DHT22;69435;52.670;13.544;2023-12-14T09:06:13;6.30;68.00
21335;DHT22;69435;52.670;13.544;2023-12-14T09:09:00;6.30;67.90
21335;DHT22;69435;52.670;13.544;2023-12-14T09:11:46;6.30;67.80
21335;DHT22;69435;52.670;13.544;2023-12-14T09:14:32;6.30;67.80
21335;DHT22;69435;52.670;13.544;2023-12-14T09:17:18;6.30;67.70
21335;DHT22;69435;52.670;13.544;2023-12-14T09:20:05;6.30;67.70
21335;DHT22;69435;52.670;13.544;2023-12-14T09:22:52;6.40;67.60
21335;DHT22;69435;52.670;13.544;2023-12-14T09:25:38;6.30;67.20
21335;DHT22;69435;52.670;13.544;2023-12-14T09:28:25;6.30;67.20
21335;DHT22;69435;52.670;13.544;2023-12-14T09:31:12;6.30;67.30
21335;DHT22;69435;52.670;13.544;2023-12-14T09:33:58;6.30;67.40
21335;DHT22;69435;52.670;13.544;2023-12-14T09:36:44;6.30;67.40
21335;DHT22;69435;52.670;13.544;2023-12-14T09:39:30;6.30;67.50
21335;DHT22;69435;52.670;13.544;2023-12-14T09:42:18;6.30;67.40
21335;DHT22;69435;52.670;13.544;2023-12-14T09:45:09;6.30;67.30
21335;DHT22;69435;52.670;13.544;2023-12-14T09:48:00;6.40;67.20
21335;DHT22;69435;52.670;13.544;2023-12-14T09:50:47;6.30;67.00
21335;DHT22;69435;52.670;13.544;2023-12-14T09:53:34;6.40;66.90
21335;DHT22;69435;52.670;13.544;2023-12-14T09:56:20;6.30;66.90
21335;DHT22;69435;52.670;13.544;2023-12-14T09:59:06;6.30;66.80
21335;DHT22;69435;52.670;13.544;2023-12-14T10:01:53;6.30;66.90
21335;DHT22;69435;52.670;13.544;2023-12-14T10:04:48;6.30;66.80
21335;DHT22;69435;52.670;13.544;2023-12-14T10:07:41;6.30;66.60
21335;DHT22;69435;52.670;13.544;2023-12-14T10:10:29;6.30;66.80
21335;DHT22;69435;52.670;13.544;2023-12-14T10:13:15;6.30;66.40
21335;DHT22;69435;52.670;13.544;2023-12-14T10:16:01;6.40;66.70
21335;DHT22;69435;52.670;13.544;2023-12-14T10:18:50;6.40;66.70
21335;DHT22;69435;52.670;13.544;2023-12-14T10:21:36;6.40;66.70
21335;DHT22;69435;52.670;13.544;2023-12-14T10:24:22;6.40;66.70
21335;DHT22;69435;52.670;13.544;2023-12-14T10:27:09;6.40;66.60
21335;DHT22;69435;52.670;13.544;2023-12-14T10:29:56;6.50;67.40
21335;DHT22;69435;52.670;13.544;2023-12-14T10:32:42;6.50;66.50
21335;DHT22;69435;52.670;13.544;2023-12-14T10:35:28;6.50;66.40
21335;DHT22;69435;52.670;13.544;2023-12-14T10:38:15;6.60;66.30
21335;DHT22;69435;52.670;13.544;2023-12-14T10:41:03;6.60;65.70
21335;DHT22;69435;52.670;13.544;2023-12-14T10:43:51;6.60;65.80
21335;DHT22;69435;52.670;13.544;2023-12-14T10:46:42;6.60;66.00
21335;DHT22;69435;52.670;13.544;2023-12-14T10:49:32;6.60;66.00
21335;DHT22;69435;52.670;13.544;2023-12-14T10:52:22;6.60;65.80
21335;DHT22;69435;52.670;13.544;2023-12-14T10:55:25;6.60;65.50
21335;DHT22;69435;52.670;13.544;2023-12-14T10:58:57;6.60;65.70
21335;DHT22;69435;52.670;13.544;2023-12-14T11:01:44;6.60;65.60
21335;DHT22;69435;52.670;13.544;2023-12-14T11:04:30;6.60;65.80
21335;DHT22;69435;52.670;13.544;2023-12-14T11:07:16;6.60;65.90
21335;DHT22;69435;52.670;13.544;2023-12-14T11:10:02;6.60;66.00
21335;DHT22;69435;52.670;13.544;2023-12-14T11:13:02;6.70;65.80
21335;DHT22;69435;52.670;13.544;2023-12-14T11:15:51;6.70;65.80
21335;DHT22;69435;52.670;13.544;2023-12-14T11:18:38;6.80;65.30
21335;DHT22;69435;52.670;13.544;2023-12-14T11:21:25;6.70;65.60
21335;DHT22;69435;52.670;13.544;2023-12-14T11:24:12;6.80;65.70
21335;DHT22;69435;52.670;13.544;2023-12-14T11:26:58;6.90;65.70
21335;DHT22;69435;52.670;13.544;2023-12-14T11:29:45;6.80;65.80
21335;DHT22;69435;52.670;13.544;2023-12-14T11:32:35;6.90;65.60
21335;DHT22;69435;52.670;13.544;2023-12-14T11:35:21;7.00;64.80
21335;DHT22;69435;52.670;13.544;2023-12-14T11:38:07;6.90;64.70
21335;DHT22;69435;52.670;13.544;2023-12-14T11:40:59;6.90;64.70
21335;DHT22;69435;52.670;13.544;2023-12-14T11:43:45;7.00;64.90
21335;DHT22;69435;52.670;13.544;2023-12-14T11:46:31;7.00;65.00
21335;DHT22;69435;52.670;13.544;2023-12-14T11:49:17;7.00;65.00
21335;DHT22;69435;52.670;13.544;2023-12-14T11:52:03;7.10;65.10
21335;DHT22;69435;52.670;13.544;2023-12-14T11:54:50;7.10;64.80
21335;DHT22;69435;52.670;13.544;2023-12-14T11:57:36;7.10;64.50
21335;DHT22;69435;52.670;13.544;2023-12-14T12:00:27;7.10;64.50
21335;DHT22;69435;52.670;13.544;2023-12-14T12:03:18;7.00;64.40
21335;DHT22;69435;52.670;13.544;2023-12-14T12:06:08;7.00;64.60
21335;DHT22;69435;52.670;13.544;2023-12-14T12:08:54;7.00;64.70
21335;DHT22;69435;52.670;13.544;2023-12-14T12:11:40;7.10;64.80
21335;DHT22;69435;52.670;13.544;2023-12-14T12:14:27;7.00;64.40
21335;DHT22;69435;52.670;13.544;2023-12-14T12:17:14;7.10;64.40
21335;DHT22;69435;52.670;13.544;2023-12-14T12:20:01;7.00;63.80
21335;DHT22;69435;52.670;13.544;2023-12-14T12:22:47;7.00;63.90
21335;DHT22;69435;52.670;13.544;2023-12-14T12:25:34;6.90;64.10
21335;DHT22;69435;52.670;13.544;2023-12-14T12:28:21;6.90;64.30
21335;DHT22;69435;52.670;13.544;2023-12-14T12:31:07;6.90;64.30
21335;DHT22;69435;52.670;13.544;2023-12-14T12:33:54;6.90;64.30
21335;DHT22;69435;52.670;13.544;2023-12-14T12:36:40;6.90;64.30
21335;DHT22;69435;52.670;13.544;2023-12-14T12:39:26;6.90;64.40
21335;DHT22;69435;52.670;13.544;2023-12-14T12:42:14;6.90;64.30
21335;DHT22;69435;52.670;13.544;2023-12-14T12:45:00;6.90;64.40
21335;DHT22;69435;52.670;13.544;2023-12-14T12:47:46;6.90;64.40
21335;DHT22;69435;52.670;13.544;2023-12-14T12:50:32;6.90;64.40
21335;DHT22;69435;52.670;13.544;2023-12-14T12:53:18;7.00;64.40
21335;DHT22;69435;52.670;13.544;2023-12-14T12:56:05;6.90;64.30
21335;DHT22;69435;52.670;13.544;2023-12-14T12:58:52;7.00;64.20
21335;DHT22;69435;52.670;13.544;2023-12-14T13:01:39;6.90;64.30
21335;DHT22;69435;52.670;13.544;2023-12-14T13:04:25;7.00;64.30
21335;DHT22;69435;52.670;13.544;2023-12-14T13:07:12;7.00;64.40
21335;DHT22;69435;52.670;13.544;2023-12-14T13:09:58;7.00;64.40
21335;DHT22;69435;52.670;13.544;2023-12-14T13:12:44;7.00;64.40
21335;DHT22;69435;52.670;13.544;2023-12-14T13:15:30;7.00;64.40
21335;DHT22;69435;52.670;13.544;2023-12-14T13:18:17;7.00;64.30
21335;DHT22;69435;52.670;13.544;2023-12-14T13:21:03;7.00;64.30
21335;DHT22;69435;52.670;13.544;2023-12-14T13:23:49;7.00;64.10
21335;DHT22;69435;52.670;13.544;2023-12-14T13:26:36;7.00;64.10
21335;DHT22;69435;52.670;13.544;2023-12-14T13:29:22;7.00;64.00
21335;DHT22;69435;52.670;13.544;2023-12-14T13:32:08;7.00;63.90
21335;DHT22;69435;52.670;13.544;2023-12-14T13:34:54;7.00;63.90
21335;DHT22;69435;52.670;13.544;2023-12-14T13:37:40;6.90;64.10
21335;DHT22;69435;52.670;13.544;2023-12-14T13:40:27;7.00;64.10
21335;DHT22;69435;52.670;13.544;2023-12-14T13:43:13;6.90;64.10
21335;DHT22;69435;52.670;13.544;2023-12-14T13:45:59;6.90;64.10
21335;DHT22;69435;52.670;13.544;2023-12-14T13:48:45;6.90;64.10
21335;DHT22;69435;52.670;13.544;2023-12-14T13:51:31;6.90;63.90
21335;DHT22;69435;52.670;13.544;2023-12-14T13:54:17;6.90;64.00
21335;DHT22;69435;52.670;13.544;2023-12-14T13:57:03;6.80;64.00
21335;DHT22;69435;52.670;13.544;2023-12-14T13:59:49;6.80;64.10
21335;DHT22;69435;52.670;13.544;2023-12-14T14:02:35;6.80;64.20
21335;DHT22;69435;52.670;13.544;2023-12-14T14:05:21;6.80;64.20
21335;DHT22;69435;52.670;13.544;2023-12-14T14:08:08;6.80;64.10
21335;DHT22;69435;52.670;13.544;2023-12-14T14:10:54;6.90;64.20
21335;DHT22;69435;52.670;13.544;2023-12-14T14:13:40;6.90;64.10
21335;DHT22;69435;52.670;13.544;2023-12-14T14:16:26;6.80;64.00
21335;DHT22;69435;52.670;13.544;2023-12-14T14:19:12;6.80;64.20
21335;DHT22;69435;52.670;13.544;2023-12-14T14:21:58;6.80;64.20
21335;DHT22;69435;52.670;13.544;2023-12-14T14:24:44;6.80;64.30
21335;DHT22;69435;52.670;13.544;2023-12-14T14:27:30;6.80;64.30
21335;DHT22;69435;52.670;13.544;2023-12-14T14:30:16;6.80;65.10
21335;DHT22;69435;52.670;13.544;2023-12-14T14:33:03;6.80;64.40
21335;DHT22;69435;52.670;13.544;2023-12-14T14:35:49;6.80;64.30
21335;DHT22;69435;52.670;13.544;2023-12-14T14:38:35;6.80;64.30
21335;DHT22;69435;52.670;13.544;2023-12-14T14:41:21;6.80;64.50
21335;DHT22;69435;52.670;13.544;2023-12-14T14:44:08;6.70;64.50
21335;DHT22;69435;52.670;13.544;2023-12-14T14:46:54;6.70;64.40
21335;DHT22;69435;52.670;13.544;2023-12-14T14:49:40;6.70;64.50
21335;DHT22;69435;52.670;13.544;2023-12-14T14:52:26;6.70;64.50
21335;DHT22;69435;52.670;13.544;2023-12-14T14:55:12;6.70;64.50
21335;DHT22;69435;52.670;13.544;2023-12-14T14:57:58;6.60;64.60
21335;DHT22;69435;52.670;13.544;2023-12-14T15:00:44;6.60;64.70
21335;DHT22;69435;52.670;13.544;2023-12-14T15:03:31;6.60;64.70
21335;DHT22;69435;52.670;13.544;2023-12-14T15:06:17;6.60;64.70
21335;DHT22;69435;52.670;13.544;2023-12-14T15:09:05;6.60;64.60
21335;DHT22;69435;52.670;13.544;2023-12-14T15:11:53;6.60;64.70
21335;DHT22;69435;52.670;13.544;2023-12-14T15:14:39;6.50;64.70
21335;DHT22;69435;52.670;13.544;2023-12-14T15:17:25;6.50;64.70
21335;DHT22;69435;52.670;13.544;2023-12-14T15:20:11;6.50;64.80
21335;DHT22;69435;52.670;13.544;2023-12-14T15:22:57;6.50;64.90
21335;DHT22;69435;52.670;13.544;2023-12-14T15:25:43;6.50;64.90
21335;DHT22;69435;52.670;13.544;2023-12-14T15:28:29;6.50;64.90
21335;DHT22;69435;52.670;13.544;2023-12-14T15:31:15;6.50;65.00
21335;DHT22;69435;52.670;13.544;2023-12-14T15:34:01;6.50;65.00
21335;DHT22;69435;52.670;13.544;2023-12-14T15:36:48;6.50;65.00
21335;DHT22;69435;52.670;13.544;2023-12-14T15:39:34;6.50;64.90
21335;DHT22;69435;52.670;13.544;2023-12-14T15:42:20;6.40;64.80
21335;DHT22;69435;52.670;13.544;2023-12-14T15:45:07;6.40;64.80
21335;DHT22;69435;52.670;13.544;2023-12-14T15:47:53;6.40;64.80
21335;DHT22;69435;52.670;13.544;2023-12-14T15:50:39;6.40;64.70
21335;DHT22;69435;52.670;13.544;2023-12-14T15:53:26;6.50;64.90
21335;DHT22;69435;52.670;13.544;2023-12-14T15:56:12;6.40;64.90
21335;DHT22;69435;52.670;13.544;2023-12-14T15:58:58;6.40;64.80
21335;DHT22;69435;52.670;13.544;2023-12-14T16:01:44;6.40;64.80
21335;DHT22;69435;52.670;13.544;2023-12-14T16:04:30;6.40;64.80
21335;DHT22;69435;52.670;13.544;2023-12-14T16:07:16;6.40;64.80
21335;DHT22;69435;52.670;13.544;2023-12-14T16:10:03;6.40;64.80
21335;DHT22;69435;52.670;13.544;2023-12-14T16:12:49;6.40;64.90
21335;DHT22;69435;52.670;13.544;2023-12-14T16:15:36;6.40;64.90
21335;DHT22;69435;52.670;13.544;2023-12-14T16:18:22;6.40;65.00
21335;DHT22;69435;52.670;13.544;2023-12-14T16:21:09;6.40;65.00
21335;DHT22;69435;52.670;13.544;2023-12-14T16:23:55;6.40;65.00
21335;DHT22;69435;52.670;13.544;2023-12-14T16:26:41;6.40;65.10
21335;DHT22;69435;52.670;13.544;2023-12-14T16:29:27;6.40;65.00
21335;DHT22;69435;52.670;13.544;2023-12-14T16:32:15;6.40;65.00
21335;DHT22;69435;52.670;13.544;2023-12-14T16:35:01;6.40;65.00
21335;DHT22;69435;52.670;13.544;2023-12-14T16:37:47;6.30;65.00
21335;DHT22;69435;52.670;13.544;2023-12-14T16:40:33;6.30;64.90
21335;DHT22;69435;52.670;13.544;2023-12-14T16:43:19;6.30;65.00
21335;DHT22;69435;52.670;13.544;2023-12-14T16:46:07;6.30;65.10
21335;DHT22;69435;52.670;13.544;2023-12-14T16:48:53;6.30;65.10
21335;DHT22;69435;52.670;13.544;2023-12-14T16:51:39;6.30;65.10
21335;DHT22;69435;52.670;13.544;2023-12-14T16:54:25;6.20;65.00
21335;DHT22;69435;52.670;13.544;2023-12-14T16:57:11;6.20;64.90
21335;DHT22;69435;52.670;13.544;2023-12-14T16:59:57;6.20;64.90
21335;DHT22;69435;52.670;13.544;2023-12-14T17:02:43;6.20;65.00
21335;DHT22;69435;52.670;13.544;2023-12-14T17:05:30;6.10;65.10
21335;DHT22;69435;52.670;13.544;2023-12-14T17:08:16;6.20;65.10
21335;DHT22;69435;52.670;13.544;2023-12-14T17:11:02;6.20;65.10
21335;DHT22;69435;52.670;13.544;2023-12-14T17:13:48;6.20;65.00
21335;DHT22;69435;52.670;13.544;2023-12-14T17:16:34;6.10;64.90
21335;DHT22;69435;52.670;13.544;2023-12-14T17:19:20;6.10;64.90
21335;DHT22;69435;52.670;13.544;2023-12-14T17:22:07;6.10;65.00
21335;DHT22;69435;52.670;13.544;2023-12-14T17:24:53;6.10;65.10
21335;DHT22;69435;52.670;13.544;2023-12-14T17:27:39;6.00;64.90
21335;DHT22;69435;52.670;13.544;2023-12-14T17:30:25;6.00;65.00
21335;DHT22;69435;52.670;13.544;2023-12-14T17:33:11;6.00;65.00